sensor_id;sensor_type;location;lat;lon;timestamp;pressure;altitude;pressure_sealevel;temperature;humidity
24306;BME280;12423;48.768;8.850;2022-09-01T00:01:31;97225.63;;;14.42;100.00
24306;BME280;12423;48.768;8.850;2022-09-01T00:03:32;97230.03;;;14.33;100.00
24306;BME280;12423;48.768;8.850;2022-09-01T00:05:33;97220.75;;;14.28;100.00
24306;BME280;12423;48.768;8.850;2022-09-01T00:07:34;97224.13;;;14.30;100.00
24306;BME280;12423;48.768;8.850;2022-09-01T00:09:36;97225.53;;;14.34;100.00
24306;BME280;12423;48.768;8.850;2022-09-01T00:11:38;97225.75;;;14.23;100.00
24306;BME280;12423;48.768;8.850;2022-09-01T00:13:40;97219.81;;;13.91;100.00
24306;BME280;12423;48.768;8.850;2022-09-01T00:15:41;97223.09;;;14.13;100.00
24306;BME280;12423;48.768;8.850;2022-09-01T00:17:42;97218.97;;;14.18;100.00
24306;BME280;12423;48.768;8.850;2022-09-01T00:19:43;97217.69;;;14.23;100.00
24306;BME280;12423;48.768;8.850;2022-09-01T00:21:45;97219.06;;;14.27;100.00
24306;BME280;12423;48.768;8.850;2022-09-01T00:23:46;97215.97;;;14.22;100.00
24306;BME280;12423;48.768;8.850;2022-09-01T00:25:47;97218.38;;;14.25;100.00
24306;BME280;12423;48.768;8.850;2022-09-01T00:27:49;97224.56;;;14.25;100.00
24306;BME280;12423;48.768;8.850;2022-09-01T00:29:50;97223.63;;;14.16;100.00
24306;BME280;12423;48.768;8.850;2022-09-01T00:31:52;97223.63;;;14.16;100.00
24306;BME280;12423;48.768;8.850;2022-09-01T00:33:53;97221.94;;;14.15;100.00
24306;BME280;12423;48.768;8.850;2022-09-01T00:35:54;97230.22;;;14.04;100.00
24306;BME280;12423;48.768;8.850;2022-09-01T00:37:55;97224.84;;;14.04;100.00
24306;BME280;12423;48.768;8.850;2022-09-01T00:39:56;97223.16;;;14.03;100.00
24306;BME280;12423;48.768;8.850;2022-09-01T00:41:57;97221.44;;;14.02;100.00
24306;BME280;12423;48.768;8.850;2022-09-01T00:44:02;97227.69;;;14.03;100.00
24306;BME280;12423;48.768;8.850;2022-09-01T00:46:07;97226.81;;;14.02;100.00
24306;BME280;12423;48.768;8.850;2022-09-01T00:48:08;97224.72;;;14.06;100.00
24306;BME280;12423;48.768;8.850;2022-09-01T00:50:12;97224.22;;;14.10;100.00
24306;BME280;12423;48.768;8.850;2022-09-01T00:52:21;97230.63;;;14.09;100.00
24306;BME280;12423;48.768;8.850;2022-09-01T00:54:27;97224.53;;;14.07;100.00
24306;BME280;12423;48.768;8.850;2022-09-01T00:56:30;97224.28;;;14.00;100.00
24306;BME280;12423;48.768;8.850;2022-09-01T00:58:33;97228.22;;;13.78;100.00
24306;BME280;12423;48.768;8.850;2022-09-01T01:00:37;97215.38;;;13.72;100.00
24306;BME280;12423;48.768;8.850;2022-09-01T01:02:41;97222.56;;;13.81;100.00
24306;BME280;12423;48.768;8.850;2022-09-01T01:04:42;97226.63;;;13.86;100.00
24306;BME280;12423;48.768;8.850;2022-09-01T01:06:46;97224.06;;;13.84;100.00
24306;BME280;12423;48.768;8.850;2022-09-01T01:08:49;97226.63;;;13.86;100.00
24306;BME280;12423;48.768;8.850;2022-09-01T01:10:57;97226.31;;;13.89;100.00
24306;BME280;12423;48.768;8.850;2022-09-01T01:12:58;97225.75;;;13.95;100.00
24306;BME280;12423;48.768;8.850;2022-09-01T01:15:01;97224.03;;;13.94;100.00
24306;BME280;12423;48.768;8.850;2022-09-01T01:17:05;97217.81;;;13.93;100.00
24306;BME280;12423;48.768;8.850;2022-09-01T01:19:07;97216.28;;;13.91;100.00
24306;BME280;12423;48.768;8.850;2022-09-01T01:21:38;97216.38;;;13.99;100.00
24306;BME280;12423;48.768;8.850;2022-09-01T01:24:08;97224.59;;;13.97;100.00
24306;BME280;12423;48.768;8.850;2022-09-01T01:26:11;97223.44;;;14.00;100.00
24306;BME280;12423;48.768;8.850;2022-09-01T01:30:52;97215.69;;;13.97;100.00
24306;BME280;12423;48.768;8.850;2022-09-01T01:32:53;97221.06;;;13.97;100.00
24306;BME280;12423;48.768;8.850;2022-09-01T01:34:57;97214.44;;;13.91;100.00
24306;BME280;12423;48.768;8.850;2022-09-01T01:36:59;97212.59;;;13.92;100.00
24306;BME280;12423;48.768;8.850;2022-09-01T01:39:17;97215.59;;;13.89;100.00
24306;BME280;12423;48.768;8.850;2022-09-01T01:41:19;97212.22;;;13.87;100.00
24306;BME280;12423;48.768;8.850;2022-09-01T01:43:23;97214.09;;;13.76;100.00
24306;BME280;12423;48.768;8.850;2022-09-01T01:45:24;97211.66;;;13.83;100.00
24306;BME280;12423;48.768;8.850;2022-09-01T01:47:25;97211.97;;;13.80;100.00
24306;BME280;12423;48.768;8.850;2022-09-01T01:49:26;97218.78;;;13.74;100.00
24306;BME280;12423;48.768;8.850;2022-09-01T01:51:29;97216.78;;;13.76;100.00
24306;BME280;12423;48.768;8.850;2022-09-01T01:53:34;97220.44;;;13.75;100.00
24306;BME280;12423;48.768;8.850;2022-09-01T01:55:35;97224.03;;;13.66;100.00
24306;BME280;12423;48.768;8.850;2022-09-01T01:57:36;97226.97;;;13.73;100.00
24306;BME280;12423;48.768;8.850;2022-09-01T01:59:39;97224.44;;;13.71;100.00
24306;BME280;12423;48.768;8.850;2022-09-01T02:01:41;97226.72;;;13.66;100.00
24306;BME280;12423;48.768;8.850;2022-09-01T02:03:42;97226.41;;;13.69;100.00
24306;BME280;12423;48.768;8.850;2022-09-01T02:05:48;97225.00;;;13.65;100.00
24306;BME280;12423;48.768;8.850;2022-09-01T02:07:54;97221.63;;;13.63;100.00
24306;BME280;12423;48.768;8.850;2022-09-01T02:09:59;97218.28;;;13.51;100.00
24306;BME280;12423;48.768;8.850;2022-09-01T02:12:01;97217.69;;;13.57;100.00
24306;BME280;12423;48.768;8.850;2022-09-01T02:14:05;97228.00;;;13.62;100.00
24306;BME280;12423;48.768;8.850;2022-09-01T02:16:08;97228.56;;;13.56;100.00
24306;BME280;12423;48.768;8.850;2022-09-01T02:18:17;97221.38;;;13.56;100.00
24306;BME280;12423;48.768;8.850;2022-09-01T02:20:19;97222.38;;;13.55;100.00
24306;BME280;12423;48.768;8.850;2022-09-01T02:22:23;97222.50;;;13.54;100.00
24306;BME280;12423;48.768;8.850;2022-09-01T02:24:24;97220.50;;;13.56;100.00
24306;BME280;12423;48.768;8.850;2022-09-01T02:26:28;97220.25;;;13.49;100.00
24306;BME280;12423;48.768;8.850;2022-09-01T02:28:33;97217.72;;;13.48;100.00
24306;BME280;12423;48.768;8.850;2022-09-01T02:30:37;97205.88;;;13.31;100.00
24306;BME280;12423;48.768;8.850;2022-09-01T02:32:42;97210.84;;;13.35;100.00
24306;BME280;12423;48.768;8.850;2022-09-01T02:34:43;97217.59;;;13.39;100.00
24306;BME280;12423;48.768;8.850;2022-09-01T02:36:48;97215.06;;;13.28;100.00
24306;BME280;12423;48.768;8.850;2022-09-01T02:38:53;97218.91;;;13.35;100.00
24306;BME280;12423;48.768;8.850;2022-09-01T02:40:58;97210.84;;;13.35;100.00
24306;BME280;12423;48.768;8.850;2022-09-01T02:43:01;97214.91;;;13.30;100.00
24306;BME280;12423;48.768;8.850;2022-09-01T02:45:02;97210.00;;;13.25;100.00
24306;BME280;12423;48.768;8.850;2022-09-01T02:47:03;97213.81;;;13.32;100.00
24306;BME280;12423;48.768;8.850;2022-09-01T02:49:07;97220.88;;;13.33;100.00
24306;BME280;12423;48.768;8.850;2022-09-01T02:51:16;97216.63;;;13.40;100.00
24306;BME280;12423;48.768;8.850;2022-09-01T02:53:17;97217.16;;;13.44;100.00
24306;BME280;12423;48.768;8.850;2022-09-01T02:55:20;97217.91;;;13.26;100.00
24306;BME280;12423;48.768;8.850;2022-09-01T02:57:22;97217.31;;;13.23;100.00
24306;BME280;12423;48.768;8.850;2022-09-01T02:59:26;97215.38;;;13.15;100.00
24306;BME280;12423;48.768;8.850;2022-09-01T03:01:32;97215.94;;;13.09;100.00
24306;BME280;12423;48.768;8.850;2022-09-01T03:03:34;97214.84;;;13.12;100.00
24306;BME280;12423;48.768;8.850;2022-09-01T03:05:36;97209.88;;;13.17;100.00
24306;BME280;12423;48.768;8.850;2022-09-01T03:07:39;97213.28;;;13.09;100.00
24306;BME280;12423;48.768;8.850;2022-09-01T03:09:42;97214.38;;;13.16;100.00
24306;BME280;12423;48.768;8.850;2022-09-01T03:11:46;97211.00;;;13.14;100.00
24306;BME280;12423;48.768;8.850;2022-09-01T03:13:48;97212.16;;;13.12;100.00
24306;BME280;12423;48.768;8.850;2022-09-01T03:15:50;97216.38;;;13.04;100.00
24306;BME280;12423;48.768;8.850;2022-09-01T03:17:51;97212.44;;;12.99;100.00
24306;BME280;12423;48.768;8.850;2022-09-01T03:19:52;97205.78;;;13.03;100.00
24306;BME280;12423;48.768;8.850;2022-09-01T03:21:54;97215.69;;;13.02;100.00
24306;BME280;12423;48.768;8.850;2022-09-01T03:24:03;97211.72;;;12.97;100.00
24306;BME280;12423;48.768;8.850;2022-09-01T03:26:04;97209.63;;;12.90;100.00
24306;BME280;12423;48.768;8.850;2022-09-01T03:28:05;97208.75;;;12.90;100.00
24306;BME280;12423;48.768;8.850;2022-09-01T03:30:07;97213.56;;;12.86;100.00
24306;BME280;12423;48.768;8.850;2022-09-01T03:32:08;97212.88;;;12.84;100.00
24306;BME280;12423;48.768;8.850;2022-09-01T03:34:09;97218.78;;;12.88;100.00
24306;BME280;12423;48.768;8.850;2022-09-01T03:36:16;97214.72;;;12.84;100.00
24306;BME280;12423;48.768;8.850;2022-09-01T03:38:20;97218.38;;;12.73;100.00
24306;BME280;12423;48.768;8.850;2022-09-01T03:40:26;97211.31;;;12.82;100.00
24306;BME280;12423;48.768;8.850;2022-09-01T03:42:27;97211.31;;;12.82;100.00
24306;BME280;12423;48.768;8.850;2022-09-01T03:44:29;97204.56;;;12.78;100.00
24306;BME280;12423;48.768;8.850;2022-09-01T03:46:33;97201.19;;;12.76;100.00
24306;BME280;12423;48.768;8.850;2022-09-01T03:48:36;97207.09;;;12.69;100.00
24306;BME280;12423;48.768;8.850;2022-09-01T03:50:42;97208.66;;;12.72;100.00
24306;BME280;12423;48.768;8.850;2022-09-01T03:52:49;97208.94;;;12.69;100.00
24306;BME280;12423;48.768;8.850;2022-09-01T03:54:52;97202.56;;;12.70;100.00
24306;BME280;12423;48.768;8.850;2022-09-01T03:56:54;97203.84;;;12.66;100.00
24306;BME280;12423;48.768;8.850;2022-09-01T03:58:59;97199.34;;;12.66;100.00
24306;BME280;12423;48.768;8.850;2022-09-01T04:01:00;97195.25;;;12.62;100.00
24306;BME280;12423;48.768;8.850;2022-09-01T04:03:04;97197.78;;;12.54;100.00
24306;BME280;12423;48.768;8.850;2022-09-01T04:05:07;97210.19;;;12.55;100.00
24306;BME280;12423;48.768;8.850;2022-09-01T04:07:09;97208.66;;;12.52;100.00
24306;BME280;12423;48.768;8.850;2022-09-01T04:09:11;97208.50;;;12.54;100.00
24306;BME280;12423;48.768;8.850;2022-09-01T04:11:17;97212.16;;;12.53;100.00
24306;BME280;12423;48.768;8.850;2022-09-01T04:13:23;97211.63;;;12.59;100.00
24306;BME280;12423;48.768;8.850;2022-09-01T04:15:27;97219.22;;;12.54;100.00
24306;BME280;12423;48.768;8.850;2022-09-01T04:17:28;97219.22;;;12.54;100.00
24306;BME280;12423;48.768;8.850;2022-09-01T04:19:48;97222.06;;;12.52;100.00
24306;BME280;12423;48.768;8.850;2022-09-01T04:21:51;97217.81;;;12.50;100.00
24306;BME280;12423;48.768;8.850;2022-09-01T04:23:53;97220.34;;;12.61;100.00
24306;BME280;12423;48.768;8.850;2022-09-01T04:26:04;97219.38;;;12.62;100.00
24306;BME280;12423;48.768;8.850;2022-09-01T04:28:10;97215.69;;;12.53;100.00
24306;BME280;12423;48.768;8.850;2022-09-01T04:30:22;97218.06;;;12.47;100.00
24306;BME280;12423;48.768;8.850;2022-09-01T04:32:29;97216.13;;;12.49;100.00
24306;BME280;12423;48.768;8.850;2022-09-01T04:34:35;97224.84;;;12.41;100.00
24306;BME280;12423;48.768;8.850;2022-09-01T04:36:41;97218.34;;;12.44;100.00
24306;BME280;12423;48.768;8.850;2022-09-01T04:38:52;97222.03;;;12.43;100.00
24306;BME280;12423;48.768;8.850;2022-09-01T04:40:55;97221.50;;;12.49;100.00
24306;BME280;12423;48.768;8.850;2022-09-01T04:42:58;97226.13;;;12.47;100.00
24306;BME280;12423;48.768;8.850;2022-09-01T04:45:00;97225.13;;;12.48;100.00
24306;BME280;12423;48.768;8.850;2022-09-01T04:47:01;97221.03;;;12.44;100.00
24306;BME280;12423;48.768;8.850;2022-09-01T04:49:04;97229.06;;;12.44;100.00
24306;BME280;12423;48.768;8.850;2022-09-01T04:51:11;97238.25;;;12.41;100.00
24306;BME280;12423;48.768;8.850;2022-09-01T04:53:28;97239.25;;;12.50;100.00
24306;BME280;12423;48.768;8.850;2022-09-01T04:55:29;97227.66;;;12.40;100.00
24306;BME280;12423;48.768;8.850;2022-09-01T04:57:30;97233.84;;;12.30;100.00
24306;BME280;12423;48.768;8.850;2022-09-01T04:59:32;97235.56;;;12.41;100.00
24306;BME280;12423;48.768;8.850;2022-09-01T05:01:34;97232.63;;;12.44;100.00
24306;BME280;12423;48.768;8.850;2022-09-01T05:03:47;97226.53;;;12.42;100.00
24306;BME280;12423;48.768;8.850;2022-09-01T05:06:17;97233.44;;;12.45;100.00
24306;BME280;12423;48.768;8.850;2022-09-01T05:08:26;97227.53;;;12.41;100.00
24306;BME280;12423;48.768;8.850;2022-09-01T05:10:31;97234.28;;;12.45;100.00
24306;BME280;12423;48.768;8.850;2022-09-01T05:12:44;97238.78;;;12.35;100.00
24306;BME280;12423;48.768;8.850;2022-09-01T05:14:46;97232.56;;;12.25;100.00
24306;BME280;12423;48.768;8.850;2022-09-01T05:16:50;97226.53;;;12.23;100.00
24306;BME280;12423;48.768;8.850;2022-09-01T05:18:56;97233.56;;;12.33;100.00
24306;BME280;12423;48.768;8.850;2022-09-01T05:21:05;97239.78;;;12.34;100.00
24306;BME280;12423;48.768;8.850;2022-09-01T05:23:11;97238.38;;;12.40;100.00
24306;BME280;12423;48.768;8.850;2022-09-01T05:25:13;97244.00;;;12.37;100.00
24306;BME280;12423;48.768;8.850;2022-09-01T05:27:19;97243.59;;;12.41;100.00
24306;BME280;12423;48.768;8.850;2022-09-01T05:29:20;97238.78;;;12.35;100.00
24306;BME280;12423;48.768;8.850;2022-09-01T05:31:23;97243.19;;;12.46;100.00
24306;BME280;12423;48.768;8.850;2022-09-01T05:33:25;97237.56;;;12.39;100.00
24306;BME280;12423;48.768;8.850;2022-09-01T05:35:26;97233.47;;;12.54;100.00
24306;BME280;12423;48.768;8.850;2022-09-01T05:37:27;97241.91;;;12.50;100.00
24306;BME280;12423;48.768;8.850;2022-09-01T05:39:30;97240.34;;;12.57;100.00
24306;BME280;12423;48.768;8.850;2022-09-01T05:41:31;97237.81;;;12.65;100.00
24306;BME280;12423;48.768;8.850;2022-09-01T05:43:35;97238.69;;;12.76;100.00
24306;BME280;12423;48.768;8.850;2022-09-01T05:45:39;97223.19;;;12.79;100.00
24306;BME280;12423;48.768;8.850;2022-09-01T05:47:42;97221.19;;;12.91;100.00
24306;BME280;12423;48.768;8.850;2022-09-01T05:49:44;97223.72;;;12.83;100.00
24306;BME280;12423;48.768;8.850;2022-09-01T05:51:48;97219.34;;;12.91;100.00
24306;BME280;12423;48.768;8.850;2022-09-01T05:53:54;97217.69;;;12.90;100.00
24306;BME280;12423;48.768;8.850;2022-09-01T05:56:00;97229.22;;;12.91;100.00
24306;BME280;12423;48.768;8.850;2022-09-01T05:58:06;97226.00;;;12.97;100.00
24306;BME280;12423;48.768;8.850;2022-09-01T06:00:10;97227.66;;;12.98;100.00
24306;BME280;12423;48.768;8.850;2022-09-01T06:02:15;97224.84;;;13.00;100.00
24306;BME280;12423;48.768;8.850;2022-09-01T06:04:17;97223.16;;;13.08;100.00
24306;BME280;12423;48.768;8.850;2022-09-01T06:06:21;97215.13;;;13.08;100.00
24306;BME280;12423;48.768;8.850;2022-09-01T06:08:24;97216.09;;;13.07;100.00
24306;BME280;12423;48.768;8.850;2022-09-01T06:10:25;97224.56;;;13.03;100.00
24306;BME280;12423;48.768;8.850;2022-09-01T06:12:26;97214.09;;;13.09;100.00
24306;BME280;12423;48.768;8.850;2022-09-01T06:14:28;97206.06;;;13.09;100.00
24306;BME280;12423;48.768;8.850;2022-09-01T06:16:30;97212.56;;;13.17;100.00
24306;BME280;12423;48.768;8.850;2022-09-01T06:18:31;97216.91;;;13.18;100.00
24306;BME280;12423;48.768;8.850;2022-09-01T06:20:41;97214.66;;;13.23;100.00
24306;BME280;12423;48.768;8.850;2022-09-01T06:22:44;97223.09;;;13.28;100.00
24306;BME280;12423;48.768;8.850;2022-09-01T06:24:46;97227.94;;;13.34;100.00
24306;BME280;12423;48.768;8.850;2022-09-01T06:26:47;97218.06;;;13.35;100.00
24306;BME280;12423;48.768;8.850;2022-09-01T06:28:49;97219.88;;;13.34;100.00
24306;BME280;12423;48.768;8.850;2022-09-01T06:30:55;97227.34;;;13.40;100.00
24306;BME280;12423;48.768;8.850;2022-09-01T06:32:57;97223.09;;;13.48;100.00
24306;BME280;12423;48.768;8.850;2022-09-01T06:35:01;97222.09;;;13.49;100.00
24306;BME280;12423;48.768;8.850;2022-09-01T06:37:04;97223.75;;;13.59;100.00
24306;BME280;12423;48.768;8.850;2022-09-01T06:39:06;97228.97;;;13.61;100.00
24306;BME280;12423;48.768;8.850;2022-09-01T06:41:08;97225.72;;;13.67;100.00
24306;BME280;12423;48.768;8.850;2022-09-01T06:43:12;97220.75;;;13.72;100.00
24306;BME280;12423;48.768;8.850;2022-09-01T06:45:22;97222.84;;;13.78;100.00
24306;BME280;12423;48.768;8.850;2022-09-01T06:47:23;97228.06;;;13.80;100.00
24306;BME280;12423;48.768;8.850;2022-09-01T06:49:25;97222.94;;;13.87;100.00
24306;BME280;12423;48.768;8.850;2022-09-01T06:51:39;97229.69;;;13.91;100.00
24306;BME280;12423;48.768;8.850;2022-09-01T06:53:42;97234.47;;;13.97;100.00
24306;BME280;12423;48.768;8.850;2022-09-01T06:55:48;97230.38;;;14.03;100.00
24306;BME280;12423;48.768;8.850;2022-09-01T06:57:50;97231.84;;;14.15;100.00
24306;BME280;12423;48.768;8.850;2022-09-01T06:59:54;97236.47;;;14.23;100.00
24306;BME280;12423;48.768;8.850;2022-09-01T07:01:57;97230.50;;;14.29;100.00
24306;BME280;12423;48.768;8.850;2022-09-01T07:04:04;97237.06;;;14.44;100.00
24306;BME280;12423;48.768;8.850;2022-09-01T07:06:14;97249.97;;;14.59;100.00
24306;BME280;12423;48.768;8.850;2022-09-01T07:08:50;97244.16;;;14.81;100.00
24306;BME280;12423;48.768;8.850;2022-09-01T07:11:08;97239.31;;;15.03;100.00
24306;BME280;12423;48.768;8.850;2022-09-01T07:13:19;97239.22;;;15.13;100.00
24306;BME280;12423;48.768;8.850;2022-09-01T07:15:24;97240.91;;;15.32;100.00
24306;BME280;12423;48.768;8.850;2022-09-01T07:17:25;97247.97;;;15.59;100.00
24306;BME280;12423;48.768;8.850;2022-09-01T07:19:28;97245.88;;;15.71;100.00
24306;BME280;12423;48.768;8.850;2022-09-01T07:21:34;97248.28;;;15.82;100.00
24306;BME280;12423;48.768;8.850;2022-09-01T07:23:35;97247.66;;;15.88;100.00
24306;BME280;12423;48.768;8.850;2022-09-01T07:25:41;97239.25;;;15.91;100.00
24306;BME280;12423;48.768;8.850;2022-09-01T07:27:51;97251.03;;;15.90;100.00
24306;BME280;12423;48.768;8.850;2022-09-01T07:29:53;97247.34;;;15.91;100.00
24306;BME280;12423;48.768;8.850;2022-09-01T07:31:56;97245.97;;;15.87;100.00
24306;BME280;12423;48.768;8.850;2022-09-01T07:33:59;97242.06;;;15.81;100.00
24306;BME280;12423;48.768;8.850;2022-09-01T07:36:01;97244.41;;;15.76;100.00
24306;BME280;12423;48.768;8.850;2022-09-01T07:38:05;97245.97;;;15.87;100.00
24306;BME280;12423;48.768;8.850;2022-09-01T07:40:11;97250.09;;;15.99;100.00
24306;BME280;12423;48.768;8.850;2022-09-01T07:42:32;97248.41;;;16.07;100.00
24306;BME280;12423;48.768;8.850;2022-09-01T07:44:52;97250.47;;;16.13;100.00
24306;BME280;12423;48.768;8.850;2022-09-01T07:47:15;97250.47;;;16.13;100.00
24306;BME280;12423;48.768;8.850;2022-09-01T07:49:17;97251.16;;;16.15;100.00
24306;BME280;12423;48.768;8.850;2022-09-01T07:51:20;97253.72;;;16.25;100.00
24306;BME280;12423;48.768;8.850;2022-09-01T07:53:26;97254.81;;;16.48;100.00
24306;BME280;12423;48.768;8.850;2022-09-01T07:55:29;97254.88;;;16.73;100.00
24306;BME280;12423;48.768;8.850;2022-09-01T07:57:32;97250.34;;;16.82;100.00
24306;BME280;12423;48.768;8.850;2022-09-01T07:59:35;97246.34;;;17.02;100.00
24306;BME280;12423;48.768;8.850;2022-09-01T08:01:43;97248.19;;;17.26;100.00
24306;BME280;12423;48.768;8.850;2022-09-01T08:03:46;97250.72;;;17.28;100.00
24306;BME280;12423;48.768;8.850;2022-09-01T08:05:49;97251.22;;;17.23;100.00
24306;BME280;12423;48.768;8.850;2022-09-01T08:07:54;97255.97;;;17.21;100.00
24306;BME280;12423;48.768;8.850;2022-09-01T08:09:59;97258.16;;;17.34;100.00
24306;BME280;12423;48.768;8.850;2022-09-01T08:12:00;97259.31;;;17.40;100.00
24306;BME280;12423;48.768;8.850;2022-09-01T08:14:02;97261.69;;;17.59;100.00
24306;BME280;12423;48.768;8.850;2022-09-01T08:16:05;97262.34;;;17.61;100.00
24306;BME280;12423;48.768;8.850;2022-09-01T08:18:07;97251.69;;;17.68;100.00
24306;BME280;12423;48.768;8.850;2022-09-01T08:20:09;97256.41;;;17.91;100.00
24306;BME280;12423;48.768;8.850;2022-09-01T08:22:24;97259.22;;;18.05;100.00
24306;BME280;12423;48.768;8.850;2022-09-01T08:24:38;97255.16;;;18.10;100.00
24306;BME280;12423;48.768;8.850;2022-09-01T08:26:39;97257.84;;;18.10;100.00
24306;BME280;12423;48.768;8.850;2022-09-01T08:28:40;97256.63;;;18.20;100.00
24306;BME280;12423;48.768;8.850;2022-09-01T08:30:43;97254.38;;;18.32;100.00
24306;BME280;12423;48.768;8.850;2022-09-01T08:32:45;97261.00;;;18.30;100.00
24306;BME280;12423;48.768;8.850;2022-09-01T08:34:46;97249.78;;;18.41;100.00
24306;BME280;12423;48.768;8.850;2022-09-01T08:36:47;97245.97;;;18.58;100.00
24306;BME280;12423;48.768;8.850;2022-09-01T08:38:49;97244.22;;;18.66;100.00
24306;BME280;12423;48.768;8.850;2022-09-01T08:40:52;97247.88;;;18.81;100.00
24306;BME280;12423;48.768;8.850;2022-09-01T08:45:21;97252.31;;;18.74;100.00
24306;BME280;12423;48.768;8.850;2022-09-01T08:47:23;97248.16;;;18.94;100.00
24306;BME280;12423;48.768;8.850;2022-09-01T08:49:24;97248.50;;;18.91;100.00
24306;BME280;12423;48.768;8.850;2022-09-01T08:51:59;97252.59;;;18.87;100.00
24306;BME280;12423;48.768;8.850;2022-09-01T08:56:25;97255.63;;;18.92;100.00
24306;BME280;12423;48.768;8.850;2022-09-01T08:58:29;97248.41;;;19.08;100.00
24306;BME280;12423;48.768;8.850;2022-09-01T09:01:06;97245.63;;;19.16;100.00
24306;BME280;12423;48.768;8.850;2022-09-01T09:03:20;97249.59;;;19.05;100.00
24306;BME280;12423;48.768;8.850;2022-09-01T09:10:29;97255.59;;;19.39;100.00
24306;BME280;12423;48.768;8.850;2022-09-01T09:12:46;97255.59;;;19.39;100.00
24306;BME280;12423;48.768;8.850;2022-09-01T09:17:04;97261.03;;;19.39;100.00
24306;BME280;12423;48.768;8.850;2022-09-01T09:21:21;97265.34;;;19.25;100.00
24306;BME280;12423;48.768;8.850;2022-09-01T09:23:27;97258.75;;;19.27;100.00
24306;BME280;12423;48.768;8.850;2022-09-01T09:25:30;97258.06;;;19.25;100.00
24306;BME280;12423;48.768;8.850;2022-09-01T09:27:37;97261.38;;;19.36;100.00
24306;BME280;12423;48.768;8.850;2022-09-01T09:29:38;97253.69;;;19.24;100.00
24306;BME280;12423;48.768;8.850;2022-09-01T09:31:39;97254.34;;;19.26;100.00
24306;BME280;12423;48.768;8.850;2022-09-01T09:33:48;97258.84;;;19.34;100.00
24306;BME280;12423;48.768;8.850;2022-09-01T09:35:49;97254.81;;;19.30;100.00
24306;BME280;12423;48.768;8.850;2022-09-01T09:37:51;97251.84;;;19.40;100.00
24306;BME280;12423;48.768;8.850;2022-09-01T09:42:13;97258.50;;;19.37;100.00
24306;BME280;12423;48.768;8.850;2022-09-01T09:44:30;97260.75;;;19.25;100.00
24306;BME280;12423;48.768;8.850;2022-09-01T09:46:42;97255.34;;;19.25;100.00
24306;BME280;12423;48.768;8.850;2022-09-01T09:48:43;97257.56;;;19.22;100.00
24306;BME280;12423;48.768;8.850;2022-09-01T09:50:44;97253.69;;;19.24;100.00
24306;BME280;12423;48.768;8.850;2022-09-01T09:52:46;97254.16;;;19.66;100.00
24306;BME280;12423;48.768;8.850;2022-09-01T09:55:05;97257.75;;;19.96;100.00
24306;BME280;12423;48.768;8.850;2022-09-01T09:59:21;97247.84;;;20.33;100.00
24306;BME280;12423;48.768;8.850;2022-09-01T10:03:40;97249.28;;;20.51;100.00
24306;BME280;12423;48.768;8.850;2022-09-01T10:05:47;97246.47;;;20.59;100.00
24306;BME280;12423;48.768;8.850;2022-09-01T10:07:48;97244.16;;;20.56;100.00
24306;BME280;12423;48.768;8.850;2022-09-01T10:09:51;97248.47;;;20.50;100.00
24306;BME280;12423;48.768;8.850;2022-09-01T10:11:54;97245.94;;;20.49;100.00
24306;BME280;12423;48.768;8.850;2022-09-01T10:13:57;97236.97;;;20.63;100.00
24306;BME280;12423;48.768;8.850;2022-09-01T10:16:08;97236.41;;;21.11;100.00
24306;BME280;12423;48.768;8.850;2022-09-01T10:18:15;97231.47;;;21.43;100.00
24306;BME280;12423;48.768;8.850;2022-09-01T10:20:20;97235.56;;;21.53;100.00
24306;BME280;12423;48.768;8.850;2022-09-01T10:22:22;97234.66;;;21.03;100.00
24306;BME280;12423;48.768;8.850;2022-09-01T10:26:37;97226.25;;;21.20;100.00
24306;BME280;12423;48.768;8.850;2022-09-01T10:31:20;97224.75;;;21.39;100.00
24306;BME280;12423;48.768;8.850;2022-09-01T10:33:22;97234.31;;;21.34;100.00
24306;BME280;12423;48.768;8.850;2022-09-01T10:35:27;97227.28;;;21.40;97.57
24306;BME280;12423;48.768;8.850;2022-09-01T10:37:30;97231.47;;;21.64;94.52
24306;BME280;12423;48.768;8.850;2022-09-01T10:39:32;97225.88;;;22.07;95.20
24306;BME280;12423;48.768;8.850;2022-09-01T10:41:44;97221.88;;;22.03;89.40
24306;BME280;12423;48.768;8.850;2022-09-01T10:43:50;97227.13;;;22.40;87.52
24306;BME280;12423;48.768;8.850;2022-09-01T10:45:51;97223.66;;;22.18;83.50
24306;BME280;12423;48.768;8.850;2022-09-01T10:47:53;97213.75;;;22.45;84.09
24306;BME280;12423;48.768;8.850;2022-09-01T10:51:56;97209.88;;;22.74;81.96
24306;BME280;12423;48.768;8.850;2022-09-01T10:53:58;97210.38;;;23.11;81.56
24306;BME280;12423;48.768;8.850;2022-09-01T11:01:05;97206.81;;;23.98;77.34
24306;BME280;12423;48.768;8.850;2022-09-01T11:05:14;97207.25;;;24.46;74.53
24306;BME280;12423;48.768;8.850;2022-09-01T11:09:38;97195.78;;;25.15;70.59
24306;BME280;12423;48.768;8.850;2022-09-01T11:14:24;97201.78;;;23.81;72.70
24306;BME280;12423;48.768;8.850;2022-09-01T11:18:28;97199.59;;;24.17;72.87
24306;BME280;12423;48.768;8.850;2022-09-01T11:20:31;97201.38;;;23.71;73.28
24306;BME280;12423;48.768;8.850;2022-09-01T11:26:48;97188.41;;;23.33;74.35
24306;BME280;12423;48.768;8.850;2022-09-01T11:28:49;97195.94;;;23.64;72.19
24306;BME280;12423;48.768;8.850;2022-09-01T11:35:19;97188.66;;;24.75;64.92
24306;BME280;12423;48.768;8.850;2022-09-01T11:37:23;97193.38;;;24.48;65.77
24306;BME280;12423;48.768;8.850;2022-09-01T11:39:29;97194.69;;;24.45;66.80
24306;BME280;12423;48.768;8.850;2022-09-01T11:43:41;97178.09;;;27.09;57.60
24306;BME280;12423;48.768;8.850;2022-09-01T11:46:37;97180.22;;;27.73;53.27
24306;BME280;12423;48.768;8.850;2022-09-01T11:48:18;97168.13;;;28.33;50.31